Time;durP1;ratioP1;P1;durP2;ratioP2;P2;SDS_P1;SDS_P2;PMS_P1;PMS_P2;Temp;Humidity;BMP_temperature;BMP_pressure;BME280_temperature;BME280_humidity;BME280_pressure;Samples;Min_cycle;Max_cycle;Signal;HPM_P1;HPM_P2
2023/12/05 00:00:38;;;;;;;22.58;5.45;;;10.40;99.90;;;;;;5071389;28;20453;-73
2023/12/05 00:03:04;;;;;;;17.10;4.65;;;10.30;99.90;;;;;;5071248;28;20486;-73
2023/12/05 00:05:29;;;;;;;15.30;4.20;;;10.30;99.90;;;;;;5075065;28;20032;-72
2023/12/05 00:07:55;;;;;;;10.98;3.47;;;10.20;99.90;;;;;;5075467;28;20021;-73
2023/12/05 00:10:21;;;;;;;14.27;4.28;;;10.10;99.90;;;;;;5075125;28;20033;-73
2023/12/05 00:12:47;;;;;;;12.82;3.40;;;10.30;99.90;;;;;;5075140;28;20073;-73
2023/12/05 00:15:13;;;;;;;13.00;3.38;;;10.50;99.90;;;;;;5075324;28;20071;-74
2023/12/05 00:17:38;;;;;;;14.25;4.03;;;10.60;99.90;;;;;;5075084;28;20032;-73
2023/12/05 00:20:05;;;;;;;13.68;3.80;;;10.70;99.90;;;;;;5075187;28;20487;-73
2023/12/05 00:22:31;;;;;;;14.30;4.07;;;10.80;99.90;;;;;;5075218;28;20044;-73
2023/12/05 00:24:56;;;;;;;18.17;4.45;;;10.80;99.90;;;;;;5075141;28;20137;-73
2023/12/05 00:27:22;;;;;;;16.92;4.65;;;10.90;99.90;;;;;;5075449;28;20024;-74
2023/12/05 00:29:48;;;;;;;20.25;5.88;;;10.90;99.90;;;;;;5074798;28;20025;-74
2023/12/05 00:32:14;;;;;;;15.40;3.95;;;10.90;99.90;;;;;;5073241;28;20025;-74
2023/12/05 00:34:39;;;;;;;16.52;4.47;;;10.90;99.90;;;;;;5074937;28;20021;-73
2023/12/05 00:37:05;;;;;;;17.02;4.40;;;10.90;99.90;;;;;;5074594;28;20562;-73
2023/12/05 00:39:30;;;;;;;15.50;4.93;;;10.90;99.90;;;;;;5073738;28;20445;-73
2023/12/05 00:41:56;;;;;;;16.58;4.00;;;10.70;99.90;;;;;;5074659;28;20020;-73
2023/12/05 00:44:22;;;;;;;16.77;4.20;;;10.80;99.90;;;;;;5074405;28;20028;-73
2023/12/05 00:46:48;;;;;;;17.00;4.28;;;10.70;99.90;;;;;;5074675;28;20025;-74
2023/12/05 00:49:13;;;;;;;17.33;4.72;;;10.70;99.90;;;;;;5074236;28;20415;-74
2023/12/05 00:51:39;;;;;;;16.77;4.55;;;10.60;99.90;;;;;;5075131;28;20059;-73
2023/12/05 00:54:05;;;;;;;14.43;4.45;;;10.50;99.90;;;;;;5074486;28;20467;-74
2023/12/05 00:56:31;;;;;;;19.50;4.60;;;10.40;99.90;;;;;;5074538;28;20032;-74
2023/12/05 00:58:56;;;;;;;19.92;4.85;;;10.30;99.90;;;;;;5074106;28;20028;-74
2023/12/05 01:01:23;;;;;;;17.73;3.88;;;10.30;99.90;;;;;;5073775;28;20043;-74
2023/12/05 01:03:51;;;;;;;15.07;4.22;;;10.30;99.90;;;;;;5074424;28;20056;-74
2023/12/05 01:06:17;;;;;;;15.10;4.00;;;10.20;99.90;;;;;;5074331;28;20036;-74
2023/12/05 01:08:43;;;;;;;17.75;4.72;;;10.30;99.90;;;;;;5074607;28;20471;-73
2023/12/05 01:11:12;;;;;;;17.05;4.07;;;10.30;99.90;;;;;;5074087;28;20142;-73
2023/12/05 01:13:38;;;;;;;17.13;4.97;;;10.30;99.90;;;;;;5074362;28;20438;-73
2023/12/05 01:16:04;;;;;;;13.98;3.70;;;10.30;99.90;;;;;;5073041;28;20039;-73
2023/12/05 01:18:30;;;;;;;11.60;3.13;;;10.30;99.90;;;;;;5074073;28;20051;-74
2023/12/05 01:20:56;;;;;;;10.60;2.78;;;10.30;99.90;;;;;;5074338;28;20040;-73
2023/12/05 01:23:21;;;;;;;7.90;2.30;;;10.20;99.90;;;;;;5073801;28;20107;-74
2023/12/05 01:25:47;;;;;;;9.02;2.53;;;10.20;99.90;;;;;;5073682;28;20564;-73
2023/12/05 01:28:13;;;;;;;11.70;3.10;;;10.20;99.90;;;;;;5073585;28;20046;-73
2023/12/05 01:30:38;;;;;;;13.90;3.65;;;10.10;99.90;;;;;;5073800;28;20032;-74
2023/12/05 01:33:04;;;;;;;14.25;3.63;;;10.10;99.90;;;;;;5073666;28;20392;-74
2023/12/05 01:35:30;;;;;;;12.68;3.72;;;10.20;99.90;;;;;;5073870;28;20027;-73
2023/12/05 01:37:55;;;;;;;13.50;3.97;;;10.30;99.90;;;;;;5073642;28;20056;-73
2023/12/05 01:40:21;;;;;;;16.00;3.67;;;10.30;99.90;;;;;;5073678;28;20036;-73
2023/12/05 01:42:47;;;;;;;11.55;3.28;;;10.30;99.90;;;;;;5074013;28;20097;-73
2023/12/05 01:45:13;;;;;;;17.60;4.43;;;10.30;99.90;;;;;;5073288;28;20407;-73
2023/12/05 01:47:40;;;;;;;16.33;3.92;;;10.30;99.90;;;;;;5073482;28;20048;-73
2023/12/05 01:50:14;;;;;;;13.90;3.55;;;10.30;99.90;;;;;;5073754;28;20021;-73
2023/12/05 01:52:46;;;;;;;12.45;3.80;;;10.30;99.90;;;;;;5073035;28;20045;-73
2023/12/05 01:55:12;;;;;;;12.70;3.65;;;10.30;99.90;;;;;;5073183;28;20028;-73
2023/12/05 01:57:38;;;;;;;12.18;3.22;;;10.30;99.90;;;;;;5072768;28;20024;-73
2023/12/05 02:00:04;;;;;;;14.32;3.35;;;10.20;99.90;;;;;;5072603;28;20529;-73
2023/12/05 02:02:31;;;;;;;13.05;3.53;;;10.20;99.90;;;;;;5073597;28;20051;-73
2023/12/05 02:04:56;;;;;;;15.00;3.60;;;10.40;99.90;;;;;;5072986;28;20028;-73
2023/12/05 02:07:23;;;;;;;14.45;4.10;;;10.50;99.90;;;;;;5073272;28;20031;-74
2023/12/05 02:09:49;;;;;;;14.55;3.88;;;10.70;99.90;;;;;;5072971;28;20020;-73
2023/12/05 02:12:14;;;;;;;13.65;3.60;;;10.80;99.90;;;;;;5073362;28;20111;-73
2023/12/05 02:14:42;;;;;;;16.33;4.43;;;10.90;99.90;;;;;;5072872;28;20033;-73
2023/12/05 02:17:35;;;;;;;14.55;4.43;;;11.00;99.90;;;;;;5072828;28;20040;-73
2023/12/05 02:20:07;;;;;;;17.30;4.35;;;11.10;99.90;;;;;;5072720;28;20031;-73
2023/12/05 02:22:49;;;;;;;15.35;4.03;;;11.20;99.90;;;;;;5072575;28;20029;-73
2023/12/05 02:25:40;;;;;;;14.70;4.13;;;11.10;99.90;;;;;;5072229;28;20437;-73
2023/12/05 02:28:06;;;;;;;11.20;3.83;;;11.10;99.90;;;;;;5072037;28;20485;-73
2023/12/05 02:30:32;;;;;;;11.20;2.85;;;11.00;99.90;;;;;;5072812;28;20529;-73
2023/12/05 02:32:58;;;;;;;9.63;2.90;;;11.00;99.90;;;;;;5072478;28;20013;-73
2023/12/05 02:35:24;;;;;;;15.88;3.30;;;10.90;99.90;;;;;;5072545;28;20031;-73
2023/12/05 02:38:05;;;;;;;14.07;3.42;;;10.70;99.90;;;;;;5072313;28;20356;-72
2023/12/05 02:40:41;;;;;;;7.90;2.10;;;10.60;99.90;;;;;;5072335;28;20044;-72
2023/12/05 02:43:15;;;;;;;10.43;2.20;;;10.30;99.90;;;;;;5071916;28;20048;-72
2023/12/05 02:45:45;;;;;;;7.95;2.22;;;10.10;99.90;;;;;;5072152;28;20025;-72
2023/12/05 02:48:12;;;;;;;6.38;1.92;;;10.00;99.90;;;;;;5072412;28;20024;-72
2023/12/05 02:50:38;;;;;;;7.18;1.80;;;9.90;99.90;;;;;;5072327;28;20040;-72
2023/12/05 02:53:03;;;;;;;7.38;2.17;;;9.80;99.90;;;;;;5071489;28;20044;-72
2023/12/05 02:55:29;;;;;;;10.02;2.40;;;9.80;99.90;;;;;;5072031;28;20025;-72
2023/12/05 02:57:55;;;;;;;9.00;2.60;;;9.70;99.90;;;;;;5071692;28;20020;-72
2023/12/05 03:00:20;;;;;;;10.77;3.10;;;9.70;99.90;;;;;;5072289;28;20032;-72
2023/12/05 03:02:46;;;;;;;13.35;3.20;;;9.60;99.90;;;;;;5072218;28;20070;-72
2023/12/05 03:05:12;;;;;;;13.63;3.78;;;9.60;99.90;;;;;;5071940;28;20024;-72
2023/12/05 03:07:37;;;;;;;11.73;3.70;;;9.60;99.90;;;;;;5072322;28;20464;-72
2023/12/05 03:10:04;;;;;;;12.55;3.30;;;9.70;99.90;;;;;;5071896;28;20058;-71
2023/12/05 03:12:33;;;;;;;14.10;3.72;;;9.70;99.90;;;;;;5071478;28;20446;-72
2023/12/05 03:15:00;;;;;;;16.58;4.10;;;9.70;99.90;;;;;;5072278;28;20025;-72
2023/12/05 03:17:26;;;;;;;16.42;4.07;;;9.70;99.90;;;;;;5072045;28;20047;-72
2023/12/05 03:19:51;;;;;;;18.08;4.60;;;9.70;99.90;;;;;;5071794;28;20061;-72
2023/12/05 03:22:17;;;;;;;15.70;3.58;;;9.70;99.90;;;;;;5071665;28;20040;-73
2023/12/05 03:24:43;;;;;;;10.25;3.08;;;9.70;99.90;;;;;;5072092;28;20024;-72
2023/12/05 03:27:08;;;;;;;12.23;3.38;;;9.80;99.90;;;;;;5071514;28;20037;-73
2023/12/05 03:29:34;;;;;;;13.30;3.42;;;9.90;99.90;;;;;;5071851;28;20031;-72
2023/12/05 03:32:00;;;;;;;13.48;3.50;;;9.90;99.90;;;;;;5071748;28;20386;-71
2023/12/05 03:34:26;;;;;;;19.00;3.83;;;9.90;99.90;;;;;;5071659;28;20031;-70
2023/12/05 03:36:52;;;;;;;15.40;3.72;;;9.90;99.90;;;;;;5072023;28;20037;-72
2023/12/05 03:39:17;;;;;;;15.98;3.53;;;9.90;99.90;;;;;;5074192;28;20110;-72
2023/12/05 03:41:44;;;;;;;15.80;3.50;;;9.90;99.90;;;;;;5075945;28;20415;-73
2023/12/05 03:44:10;;;;;;;12.15;3.08;;;9.90;99.90;;;;;;5076062;28;20032;-73
2023/12/05 03:46:35;;;;;;;16.02;3.70;;;9.90;99.90;;;;;;5075631;28;20028;-72
2023/12/05 03:49:01;;;;;;;15.70;3.60;;;9.90;99.90;;;;;;5075254;28;20070;-72
2023/12/05 03:51:27;;;;;;;13.80;3.25;;;9.90;99.90;;;;;;5075791;28;20407;-73
2023/12/05 03:53:53;;;;;;;10.00;2.88;;;9.90;99.90;;;;;;5075480;28;20116;-72
2023/12/05 03:56:19;;;;;;;10.48;3.00;;;9.90;99.90;;;;;;5075489;28;20443;-72
2023/12/05 03:58:44;;;;;;;10.07;2.78;;;10.00;99.90;;;;;;5075480;28;20055;-72
2023/12/05 04:01:10;;;;;;;12.80;3.22;;;10.30;99.90;;;;;;5075337;28;20036;-73
2023/12/05 04:03:36;;;;;;;9.50;2.80;;;10.60;99.90;;;;;;5075230;28;20024;-73
2023/12/05 04:06:02;;;;;;;13.10;2.90;;;10.50;99.90;;;;;;5075568;28;20035;-73
2023/12/05 04:08:27;;;;;;;12.75;3.03;;;10.60;99.90;;;;;;5075310;28;20082;-73
2023/12/05 04:10:53;;;;;;;13.30;3.00;;;10.70;99.90;;;;;;5074972;28;20032;-73
2023/12/05 04:13:19;;;;;;;13.73;3.50;;;10.70;99.90;;;;;;5073911;28;20120;-73
2023/12/05 04:15:44;;;;;;;11.95;3.20;;;10.70;99.90;;;;;;5075243;28;20115;-74
2023/12/05 04:18:10;;;;;;;17.20;3.63;;;10.80;99.90;;;;;;5075060;28;20055;-73
2023/12/05 04:20:36;;;;;;;12.98;3.53;;;10.70;99.90;;;;;;5075584;28;20522;-73
2023/12/05 04:23:02;;;;;;;13.18;3.35;;;10.80;99.90;;;;;;5074892;28;20149;-72
2023/12/05 04:25:27;;;;;;;12.80;3.25;;;10.70;99.90;;;;;;5074599;28;20111;-72
2023/12/05 04:27:53;;;;;;;12.15;3.35;;;10.50;99.90;;;;;;5075006;28;20020;-73
2023/12/05 04:30:19;;;;;;;14.05;3.35;;;10.40;99.90;;;;;;5074873;28;20035;-72
2023/12/05 04:32:44;;;;;;;13.82;3.58;;;10.20;99.90;;;;;;5075156;28;20471;-72
2023/12/05 04:35:10;;;;;;;11.77;3.42;;;10.20;99.90;;;;;;5074973;28;20029;-72
2023/12/05 04:37:36;;;;;;;11.95;3.00;;;10.20;99.90;;;;;;5074652;28;20107;-72
2023/12/05 04:40:01;;;;;;;13.32;3.40;;;10.10;99.90;;;;;;5074315;28;20560;-72
2023/12/05 04:42:27;;;;;;;14.77;3.42;;;10.10;99.90;;;;;;5074533;28;20433;-72
2023/12/05 04:44:53;;;;;;;16.15;3.47;;;10.20;99.90;;;;;;5074836;28;20071;-73
2023/12/05 04:47:19;;;;;;;12.82;2.92;;;10.10;99.90;;;;;;5074764;28;20059;-73
2023/12/05 04:49:45;;;;;;;12.60;3.55;;;10.10;99.90;;;;;;5074359;28;20078;-73
2023/12/05 04:52:12;;;;;;;12.80;3.25;;;10.10;99.90;;;;;;5074327;28;20048;-72
2023/12/05 04:54:38;;;;;;;13.05;3.53;;;10.20;99.90;;;;;;5074109;28;20090;-72
2023/12/05 04:57:04;;;;;;;14.45;3.47;;;10.20;99.90;;;;;;5074685;28;20013;-72
2023/12/05 04:59:29;;;;;;;16.15;3.95;;;10.20;99.90;;;;;;5074287;28;20040;-72
2023/12/05 05:01:55;;;;;;;16.63;4.20;;;10.20;99.90;;;;;;5074241;28;20029;-71
2023/12/05 05:04:20;;;;;;;14.98;3.90;;;10.10;99.90;;;;;;5074545;28;20025;-71
2023/12/05 05:06:46;;;;;;;14.85;3.95;;;9.90;99.90;;;;;;5074155;28;20036;-71
2023/12/05 05:09:12;;;;;;;19.08;4.03;;;9.70;99.90;;;;;;5073811;28;20030;-71
2023/12/05 05:11:38;;;;;;;17.55;3.95;;;9.70;99.90;;;;;;5074456;28;20086;-71
2023/12/05 05:14:04;;;;;;;14.00;3.50;;;9.70;99.90;;;;;;5073879;28;20463;-71
2023/12/05 05:16:30;;;;;;;15.68;3.60;;;9.60;99.90;;;;;;5073944;28;20031;-72
2023/12/05 05:18:55;;;;;;;11.98;3.08;;;9.50;99.90;;;;;;5073999;28;20031;-71
2023/12/05 05:21:21;;;;;;;15.88;3.35;;;9.50;99.90;;;;;;5073710;28;20119;-72
2023/12/05 05:23:47;;;;;;;11.68;2.97;;;9.50;99.90;;;;;;5073751;28;20021;-72
2023/12/05 05:26:14;;;;;;;15.75;3.58;;;9.50;99.90;;;;;;5073638;28;20031;-72
2023/12/05 05:28:39;;;;;;;13.50;3.63;;;9.50;99.90;;;;;;5073763;28;20024;-71
2023/12/05 05:31:05;;;;;;;15.20;3.78;;;9.40;99.90;;;;;;5073599;28;20024;-72
2023/12/05 05:33:31;;;;;;;14.40;3.63;;;9.50;99.90;;;;;;5073745;28;20031;-72
2023/12/05 05:35:56;;;;;;;21.20;4.30;;;9.50;99.90;;;;;;5073436;28;20119;-71
2023/12/05 05:38:22;;;;;;;15.80;3.67;;;9.50;99.90;;;;;;5073410;28;20092;-72
2023/12/05 05:40:48;;;;;;;15.73;4.13;;;9.40;99.90;;;;;;5073632;28;20090;-72
2023/12/05 05:43:14;;;;;;;18.60;4.88;;;9.50;99.90;;;;;;5073137;28;20074;-72
2023/12/05 05:45:39;;;;;;;17.88;3.88;;;9.50;99.90;;;;;;5073510;28;20021;-72
2023/12/05 05:48:05;;;;;;;15.10;3.72;;;9.60;99.90;;;;;;5071934;28;20119;-72
2023/12/05 05:50:31;;;;;;;16.08;3.80;;;9.90;99.90;;;;;;5073508;28;20039;-72
2023/12/05 05:52:56;;;;;;;16.77;4.13;;;10.20;99.90;;;;;;5072728;28;20048;-72
2023/12/05 05:55:26;;;;;;;11.63;3.20;;;10.40;99.90;;;;;;5073236;28;20024;-71
2023/12/05 05:57:52;;;;;;;22.77;4.63;;;10.60;99.90;;;;;;5073304;28;20465;-72
2023/12/05 06:00:18;;;;;;;14.35;3.50;;;10.80;99.90;;;;;;5072978;28;20044;-72
2023/12/05 06:02:44;;;;;;;14.98;3.03;;;10.70;99.90;;;;;;5072496;28;20395;-71
2023/12/05 06:05:10;;;;;;;13.60;3.13;;;10.80;99.90;;;;;;5073200;28;20054;-72
2023/12/05 06:07:36;;;;;;;13.48;3.58;;;10.90;99.90;;;;;;5072473;28;20031;-72
2023/12/05 06:10:03;;;;;;;13.02;3.15;;;10.90;99.90;;;;;;5072292;28;20375;-72
2023/12/05 06:12:29;;;;;;;15.48;3.67;;;10.90;99.90;;;;;;5072629;28;20031;-72
2023/12/05 06:14:55;;;;;;;11.07;3.05;;;10.90;99.90;;;;;;5072942;28;20138;-72
2023/12/05 06:17:20;;;;;;;11.65;3.78;;;10.90;99.90;;;;;;5072826;28;20116;-71
2023/12/05 06:19:46;;;;;;;14.05;3.67;;;10.80;99.90;;;;;;5072548;28;20031;-72
2023/12/05 06:22:12;;;;;;;13.50;3.42;;;10.60;99.90;;;;;;5072877;28;20033;-73
2023/12/05 06:24:38;;;;;;;11.18;3.30;;;10.40;99.90;;;;;;5073131;28;20024;-72
2023/12/05 06:27:04;;;;;;;9.05;2.38;;;10.40;99.90;;;;;;5072335;28;20392;-72
2023/12/05 06:29:30;;;;;;;10.73;3.00;;;10.30;99.90;;;;;;5072606;28;20020;-72
2023/12/05 06:31:55;;;;;;;12.70;3.35;;;10.20;99.90;;;;;;5072966;28;20032;-72
2023/12/05 06:34:22;;;;;;;12.00;3.30;;;10.40;99.90;;;;;;5070736;28;20024;-73
2023/12/05 06:36:47;;;;;;;13.15;3.25;;;10.40;99.90;;;;;;5072222;28;20070;-72
2023/12/05 06:39:13;;;;;;;12.75;3.10;;;10.20;99.90;;;;;;5072382;28;20017;-74
2023/12/05 06:41:39;;;;;;;10.90;3.38;;;10.20;99.90;;;;;;5070743;28;20043;-72
2023/12/05 06:44:04;;;;;;;11.50;3.15;;;10.20;99.90;;;;;;5072723;28;20031;-73
2023/12/05 06:46:30;;;;;;;13.57;3.33;;;10.20;99.90;;;;;;5072286;28;20089;-74
2023/12/05 06:48:57;;;;;;;13.65;3.45;;;10.10;99.90;;;;;;5071931;28;20055;-74
2023/12/05 06:51:23;;;;;;;15.10;3.13;;;10.00;99.90;;;;;;5072214;28;20101;-73
2023/12/05 06:53:48;;;;;;;13.52;3.47;;;9.90;99.90;;;;;;5072692;28;20033;-72
2023/12/05 06:56:16;;;;;;;12.82;3.30;;;9.90;99.90;;;;;;5072214;28;20024;-73
2023/12/05 06:58:42;;;;;;;12.02;3.28;;;9.80;99.90;;;;;;5072141;28;20506;-72
2023/12/05 07:01:08;;;;;;;15.07;3.50;;;9.80;99.90;;;;;;5071200;28;20036;-73
2023/12/05 07:03:34;;;;;;;15.23;4.28;;;9.80;99.90;;;;;;5071764;28;20017;-73
2023/12/05 07:05:59;;;;;;;10.60;2.78;;;9.80;99.90;;;;;;5072222;28;20039;-73
2023/12/05 07:08:26;;;;;;;9.02;2.60;;;9.90;99.90;;;;;;5072046;28;20027;-73
2023/12/05 07:10:52;;;;;;;12.13;2.85;;;10.00;99.90;;;;;;5071867;28;20040;-73
2023/12/05 07:13:18;;;;;;;8.80;2.75;;;10.00;99.90;;;;;;5071366;28;20032;-72
2023/12/05 07:15:44;;;;;;;15.30;3.00;;;10.00;99.90;;;;;;5071651;28;20029;-73
2023/12/05 07:18:09;;;;;;;12.73;2.85;;;10.00;99.90;;;;;;5071931;28;20082;-73
2023/12/05 07:20:35;;;;;;;11.45;2.83;;;10.00;99.90;;;;;;5071258;28;20055;-72
2023/12/05 07:23:01;;;;;;;11.10;2.35;;;9.90;99.90;;;;;;5071948;28;20020;-72
2023/12/05 07:25:27;;;;;;;8.55;2.35;;;9.90;99.90;;;;;;5071700;28;20028;-72
2023/12/05 07:27:52;;;;;;;9.32;2.50;;;9.90;99.90;;;;;;5071949;28;20108;-73
2023/12/05 07:30:18;;;;;;;11.82;3.05;;;9.80;99.90;;;;;;5072095;28;20454;-72
2023/12/05 07:32:44;;;;;;;20.35;4.53;;;9.80;99.90;;;;;;5071425;28;20514;-71
2023/12/05 07:35:10;;;;;;;14.10;3.63;;;9.90;99.90;;;;;;5071210;28;20025;-71
2023/12/05 07:37:35;;;;;;;10.82;3.47;;;9.80;99.90;;;;;;5071633;28;20081;-71
2023/12/05 07:40:05;;;;;;;12.98;3.15;;;9.80;99.90;;;;;;5071660;28;20403;-71
2023/12/05 07:42:31;;;;;;;11.18;3.05;;;10.00;99.90;;;;;;5071760;28;20028;-71
2023/12/05 07:44:56;;;;;;;8.38;2.92;;;10.20;99.90;;;;;;5071641;28;20028;-71
2023/12/05 07:47:23;;;;;;;5.75;2.10;;;10.30;99.90;;;;;;5071288;28;20020;-72
2023/12/05 07:49:49;;;;;;;5.50;2.20;;;10.40;99.90;;;;;;5065433;28;20033;-72
2023/12/05 07:52:15;;;;;;;5.50;2.50;;;10.30;99.90;;;;;;5071529;28;20049;-72
2023/12/05 07:54:40;;;;;;;7.50;2.75;;;10.40;99.90;;;;;;5071852;28;20464;-72
2023/12/05 07:57:06;;;;;;;5.40;1.98;;;10.50;99.90;;;;;;5071271;28;20020;-72
2023/12/05 07:59:32;;;;;;;6.22;2.28;;;10.50;99.90;;;;;;5071471;28;20075;-72
2023/12/05 08:01:57;;;;;;;7.30;2.00;;;10.50;99.90;;;;;;5071274;28;20029;-72
2023/12/05 08:04:23;;;;;;;6.07;1.85;;;10.40;99.90;;;;;;5071337;28;20048;-72
2023/12/05 08:06:49;;;;;;;6.45;2.00;;;10.30;99.90;;;;;;5071576;28;20025;-73
2023/12/05 08:09:14;;;;;;;7.63;2.50;;;10.30;99.90;;;;;;5071303;28;20029;-72
2023/12/05 08:11:40;;;;;;;8.75;2.50;;;10.20;99.90;;;;;;5071467;28;20058;-73
2023/12/05 08:14:07;;;;;;;8.27;2.60;;;10.10;99.90;;;;;;5071789;28;20027;-73
2023/12/05 08:16:32;;;;;;;10.48;3.10;;;10.00;99.90;;;;;;5070946;28;20446;-72
2023/12/05 08:18:58;;;;;;;13.30;3.00;;;10.00;99.90;;;;;;5071476;28;20020;-73
2023/12/05 08:21:24;;;;;;;9.48;2.58;;;9.90;99.90;;;;;;5071239;28;20040;-73
2023/12/05 08:23:49;;;;;;;11.57;2.60;;;10.00;99.90;;;;;;5071647;28;20065;-72
2023/12/05 08:26:15;;;;;;;12.13;3.05;;;10.00;99.90;;;;;;5075111;28;20104;-73
2023/12/05 08:28:41;;;;;;;13.73;3.65;;;10.00;99.90;;;;;;5074393;28;20021;-72
2023/12/05 08:31:06;;;;;;;10.90;3.35;;;10.00;99.90;;;;;;5074699;28;20032;-72
2023/12/05 08:33:32;;;;;;;12.65;3.25;;;10.00;99.90;;;;;;5074528;28;20036;-72
2023/12/05 08:35:58;;;;;;;12.05;3.13;;;10.10;99.90;;;;;;5074523;28;20025;-71
2023/12/05 08:38:24;;;;;;;10.55;3.35;;;10.10;99.90;;;;;;5074879;28;20079;-71
2023/12/05 08:40:50;;;;;;;15.13;3.63;;;10.20;99.90;;;;;;5074590;28;20040;-72
2023/12/05 08:43:16;;;;;;;10.05;3.00;;;10.10;99.90;;;;;;5073993;28;20425;-71
2023/12/05 08:45:42;;;;;;;16.80;3.60;;;10.20;99.90;;;;;;5074389;28;20039;-72
2023/12/05 08:48:08;;;;;;;13.05;3.72;;;10.30;99.90;;;;;;5073702;28;20019;-72
2023/12/05 08:50:34;;;;;;;11.55;2.85;;;10.40;99.90;;;;;;5074220;28;20032;-71
2023/12/05 08:53:00;;;;;;;11.90;3.20;;;10.30;99.90;;;;;;5074061;28;20128;-72
2023/12/05 08:55:26;;;;;;;16.30;3.40;;;10.30;99.90;;;;;;5074463;28;20104;-72
2023/12/05 08:57:51;;;;;;;16.15;3.28;;;10.20;99.90;;;;;;5073972;28;20486;-71
2023/12/05 09:00:17;;;;;;;13.95;3.60;;;10.20;99.90;;;;;;5073642;28;20383;-72
2023/12/05 09:02:43;;;;;;;18.48;3.70;;;10.20;99.90;;;;;;5074199;28;20027;-71
2023/12/05 09:05:09;;;;;;;18.05;3.42;;;10.20;99.90;;;;;;5073608;28;20033;-71
2023/12/05 09:07:35;;;;;;;16.25;3.70;;;10.10;99.90;;;;;;5073767;28;20028;-72
2023/12/05 09:10:00;;;;;;;17.23;3.70;;;10.10;99.90;;;;;;5074456;28;20074;-72
2023/12/05 09:12:26;;;;;;;15.30;3.40;;;10.10;99.90;;;;;;5073718;28;20105;-72
2023/12/05 09:14:52;;;;;;;17.25;3.72;;;10.10;99.90;;;;;;5073091;28;20044;-72
2023/12/05 09:17:19;;;;;;;15.68;3.60;;;10.10;99.90;;;;;;5072005;28;20036;-72
2023/12/05 09:19:45;;;;;;;10.45;2.90;;;10.10;99.90;;;;;;5073247;28;20025;-73
2023/12/05 09:22:10;;;;;;;14.00;3.35;;;10.10;99.90;;;;;;5073537;28;20446;-72
2023/12/05 09:24:36;;;;;;;14.68;3.47;;;10.10;99.90;;;;;;5073515;28;20017;-72
2023/12/05 09:27:02;;;;;;;12.02;3.80;;;10.20;99.90;;;;;;5073608;28;20035;-72
2023/12/05 09:29:28;;;;;;;14.80;3.80;;;10.30;99.90;;;;;;5072876;28;20095;-72
2023/12/05 09:31:54;;;;;;;15.38;3.95;;;10.50;99.90;;;;;;5073381;28;20028;-73
2023/12/05 09:34:20;;;;;;;12.57;4.30;;;10.80;99.90;;;;;;5073384;28;20094;-73
2023/12/05 09:36:45;;;;;;;12.93;3.50;;;11.00;99.90;;;;;;5073043;28;20029;-73
2023/12/05 09:39:11;;;;;;;7.65;2.90;;;11.20;99.90;;;;;;5072196;28;20027;-73
2023/12/05 09:41:50;;;;;;;11.38;3.63;;;11.40;99.90;;;;;;5073229;28;20037;-73
2023/12/05 09:44:23;;;;;;;9.85;2.83;;;11.50;99.90;;;;;;5071812;28;20020;-73
2023/12/05 09:46:54;;;;;;;12.63;2.90;;;11.80;99.90;;;;;;5073370;28;20021;-74
2023/12/05 09:49:27;;;;;;;12.55;3.53;;;11.90;99.90;;;;;;5073147;28;20036;-73
2023/12/05 09:51:53;;;;;;;14.80;3.65;;;12.00;99.90;;;;;;5072937;28;20051;-74
2023/12/05 09:54:20;;;;;;;11.90;3.22;;;12.00;99.90;;;;;;5073223;28;20453;-74
2023/12/05 09:56:47;;;;;;;14.95;3.35;;;12.10;99.90;;;;;;5073244;28;20379;-74
2023/12/05 09:59:15;;;;;;;12.88;3.25;;;12.20;99.90;;;;;;5072686;28;20063;-73
2023/12/05 10:01:43;;;;;;;13.98;3.50;;;12.10;99.90;;;;;;5072543;28;20054;-73
2023/12/05 10:04:11;;;;;;;14.35;3.50;;;11.80;99.90;;;;;;5072981;28;20032;-73
2023/12/05 10:06:37;;;;;;;15.25;3.50;;;11.70;99.90;;;;;;5073394;28;20436;-73
2023/12/05 10:09:06;;;;;;;14.90;2.97;;;11.50;99.90;;;;;;5073031;28;20027;-73
2023/12/05 10:11:33;;;;;;;16.90;3.72;;;11.40;99.90;;;;;;5072732;28;20071;-73
2023/12/05 10:14:00;;;;;;;21.60;4.15;;;11.30;99.90;;;;;;5072272;28;20044;-73
2023/12/05 10:16:27;;;;;;;12.18;3.25;;;11.20;99.90;;;;;;5073343;28;20099;-73
2023/12/05 10:18:53;;;;;;;13.23;3.33;;;11.10;99.90;;;;;;5072891;28;20035;-73
2023/12/05 10:21:19;;;;;;;16.05;3.40;;;11.10;99.90;;;;;;5072571;28;20570;-73
2023/12/05 10:23:44;;;;;;;18.45;3.47;;;11.10;99.90;;;;;;5072526;28;20031;-73
2023/12/05 10:26:10;;;;;;;13.77;3.42;;;11.20;99.90;;;;;;5072421;28;20047;-73
2023/12/05 10:28:56;;;;;;;13.25;2.92;;;11.20;99.90;;;;;;5072482;28;20024;-74
2023/12/05 10:31:22;;;;;;;14.52;3.38;;;11.20;99.90;;;;;;5072555;28;20112;-73
2023/12/05 10:33:51;;;;;;;12.75;3.20;;;11.30;99.90;;;;;;5072308;28;20023;-74
2023/12/05 10:36:17;;;;;;;11.40;2.80;;;11.40;99.90;;;;;;5072180;28;20517;-74
2023/12/05 10:38:43;;;;;;;9.63;2.92;;;11.40;99.90;;;;;;5072195;28;20024;-73
2023/12/05 10:41:09;;;;;;;11.15;2.90;;;11.50;99.90;;;;;;5071896;28;20407;-73
2023/12/05 10:43:35;;;;;;;13.07;2.88;;;11.50;99.90;;;;;;5071292;28;20027;-72
2023/12/05 10:46:05;;;;;;;11.52;3.17;;;11.50;99.90;;;;;;5072160;28;20462;-71
2023/12/05 10:48:31;;;;;;;12.90;3.03;;;11.50;99.90;;;;;;5071254;28;20447;-73
2023/12/05 10:50:57;;;;;;;17.15;3.78;;;11.50;99.90;;;;;;5070063;28;20025;-73
2023/12/05 10:53:24;;;;;;;15.05;3.30;;;11.60;99.90;;;;;;5072015;28;20162;-73
2023/12/05 10:55:50;;;;;;;14.07;3.55;;;11.60;99.90;;;;;;5071193;28;20108;-73
2023/12/05 10:58:16;;;;;;;14.02;3.22;;;11.60;99.90;;;;;;5071744;28;20111;-73
2023/12/05 11:00:43;;;;;;;12.45;2.63;;;11.60;99.90;;;;;;5066922;28;20123;-73
2023/12/05 11:03:12;;;;;;;9.85;2.65;;;11.60;99.90;;;;;;5051689;28;20021;-72
2023/12/05 11:05:38;;;;;;;11.30;2.63;;;11.60;99.90;;;;;;5051675;28;20543;-73
2023/12/05 11:08:06;;;;;;;7.45;2.22;;;11.70;99.90;;;;;;5051933;28;20112;-73
2023/12/05 11:10:32;;;;;;;9.30;2.50;;;11.70;99.90;;;;;;5051323;28;20033;-73
2023/12/05 11:13:01;;;;;;;10.43;2.72;;;11.80;99.90;;;;;;5051461;28;20021;-72
2023/12/05 11:15:39;;;;;;;6.93;2.28;;;11.80;99.90;;;;;;5052004;28;20021;-72
2023/12/05 11:18:34;;;;;;;8.88;2.30;;;11.80;99.90;;;;;;5070048;28;20028;-72
2023/12/05 11:21:19;;;;;;;8.30;2.33;;;11.80;99.90;;;;;;5068924;28;20064;-72
2023/12/05 11:24:24;;;;;;;9.25;2.40;;;12.00;99.90;;;;;;5071741;28;20067;-72
2023/12/05 11:26:52;;;;;;;;;;;12.30;99.90;;;;;;5072063;28;20020;-73
2023/12/05 11:29:39;;;;;;;11.93;2.63;;;12.40;99.90;;;;;;5071829;28;19911;-72
2023/12/05 11:32:22;;;;;;;12.30;2.55;;;12.50;99.90;;;;;;5072064;28;20066;-72
2023/12/05 11:34:53;;;;;;;11.85;2.83;;;12.50;99.90;;;;;;5071775;28;20029;-73
2023/12/05 11:37:43;;;;;;;14.38;3.10;;;12.50;99.90;;;;;;5071251;28;20510;-72
2023/12/05 11:40:09;;;;;;;10.57;2.80;;;12.50;99.90;;;;;;5071188;28;20467;-73
2023/12/05 11:42:35;;;;;;;11.23;2.72;;;12.40;99.90;;;;;;5071402;28;20059;-73
2023/12/05 11:45:23;;;;;;;11.32;2.80;;;12.50;99.90;;;;;;5071223;28;20108;-71
2023/12/05 11:47:50;;;;;;;10.32;2.67;;;12.50;99.90;;;;;;5071217;28;20044;-72
2023/12/05 11:50:16;;;;;;;11.55;2.70;;;12.40;99.90;;;;;;5069857;28;20033;-72
2023/12/05 11:52:42;;;;;;;12.93;3.00;;;12.30;99.90;;;;;;5070401;28;20046;-71
2023/12/05 11:55:10;;;;;;;12.60;3.00;;;12.10;99.90;;;;;;5070592;28;20107;-72
2023/12/05 11:57:36;;;;;;;12.15;3.05;;;12.00;99.90;;;;;;5071047;28;20104;-72
2023/12/05 12:00:03;;;;;;;13.13;3.00;;;12.00;99.90;;;;;;5073460;28;20115;-71
2023/12/05 12:02:31;;;;;;;10.90;2.70;;;11.90;99.90;;;;;;5075134;28;20063;-70
2023/12/05 12:05:00;;;;;;;12.23;2.60;;;11.80;99.90;;;;;;5075100;28;20020;-72
2023/12/05 12:07:26;;;;;;;12.88;3.38;;;11.80;99.90;;;;;;5074986;28;20026;-70
2023/12/05 12:09:52;;;;;;;11.75;2.67;;;11.70;99.90;;;;;;5075011;28;20032;-70
2023/12/05 12:12:18;;;;;;;13.57;2.80;;;11.70;99.90;;;;;;5075247;28;20479;-70
2023/12/05 12:14:43;;;;;;;11.85;2.67;;;11.60;99.90;;;;;;5075178;28;20450;-70
2023/12/05 12:17:11;;;;;;;10.43;2.90;;;11.60;99.90;;;;;;5074884;28;20033;-70
2023/12/05 12:19:38;;;;;;;11.52;3.05;;;11.60;99.90;;;;;;5074651;28;20017;-69
2023/12/05 12:22:12;;;;;;;13.60;3.08;;;11.50;99.90;;;;;;5074850;28;20107;-69
2023/12/05 12:24:39;;;;;;;10.57;2.92;;;11.50;99.90;;;;;;5074471;28;20093;-69
2023/12/05 12:27:07;;;;;;;11.55;3.05;;;11.50;99.90;;;;;;5074496;28;20033;-70
2023/12/05 12:29:33;;;;;;;12.30;3.10;;;11.50;99.90;;;;;;5074601;28;20041;-69
2023/12/05 12:32:10;;;;;;;13.75;3.63;;;11.60;99.90;;;;;;5074540;28;20502;-69
2023/12/05 12:34:37;;;;;;;12.27;3.85;;;11.70;99.90;;;;;;5074458;28;20522;-69
2023/12/05 12:37:05;;;;;;;15.30;4.38;;;11.90;99.90;;;;;;5074112;28;20016;-70
2023/12/05 12:39:36;;;;;;;14.20;4.10;;;12.00;99.90;;;;;;5074539;28;20028;-70